createdAt,value
2022-07-29T00:01:23.751Z,98.20
2022-07-29T00:03:51.683Z,98.40
2022-07-29T00:06:19.593Z,98.40
2022-07-29T00:08:47.410Z,98.30
2022-07-29T00:11:15.412Z,98.40
2022-07-29T00:13:50.554Z,98.40
2022-07-29T00:16:18.860Z,98.40
2022-07-29T00:18:46.722Z,98.50
2022-07-29T00:21:14.596Z,98.60
2022-07-29T00:23:42.808Z,98.70
2022-07-29T00:26:10.665Z,98.70
2022-07-29T00:28:38.521Z,98.70
2022-07-29T00:31:08.966Z,98.90
2022-07-29T00:33:36.856Z,99.00
2022-07-29T00:36:04.168Z,99.00
2022-07-29T00:38:31.977Z,99.20
2022-07-29T00:40:59.857Z,99.30
2022-07-29T00:43:28.120Z,99.40
2022-07-29T00:45:55.990Z,99.50
2022-07-29T00:48:25.274Z,99.60
2022-07-29T00:50:53.390Z,99.70
2022-07-29T00:53:21.976Z,99.80
2022-07-29T00:55:49.946Z,99.90
2022-07-29T00:58:20.344Z,99.90
2022-07-29T01:00:48.189Z,99.90
2022-07-29T01:03:16.051Z,99.90
2022-07-29T01:05:49.668Z,99.90
2022-07-29T01:08:20.221Z,99.90
2022-07-29T01:10:48.866Z,99.90
2022-07-29T01:13:18.166Z,99.90
2022-07-29T01:15:49.949Z,99.90
2022-07-29T01:18:23.350Z,99.90
2022-07-29T01:21:23.690Z,99.90
2022-07-29T01:24:15.151Z,99.90
2022-07-29T01:26:47.650Z,99.90
2022-07-29T01:29:29.853Z,99.90
2022-07-29T01:32:27.822Z,99.90
2022-07-29T01:35:00.523Z,99.90
2022-07-29T01:37:31.514Z,99.90
2022-07-29T01:40:03.241Z,99.90
2022-07-29T01:42:37.405Z,99.90
2022-07-29T01:45:14.309Z,99.90
2022-07-29T01:47:47.186Z,99.90
2022-07-29T01:50:19.331Z,99.90
2022-07-29T01:52:51.802Z,99.90
2022-07-29T01:55:22.087Z,99.90
2022-07-29T01:57:51.252Z,99.90
2022-07-29T02:00:20.816Z,99.90
2022-07-29T02:02:50.416Z,99.90
2022-07-29T02:05:22.360Z,99.90
2022-07-29T02:07:52.322Z,99.90
2022-07-29T02:10:25.725Z,99.90
2022-07-29T02:12:55.978Z,99.90
2022-07-29T02:15:26.306Z,99.90
2022-07-29T02:17:58.181Z,99.90
2022-07-29T02:20:28.120Z,99.90
2022-07-29T02:22:57.723Z,99.90
2022-07-29T02:25:38.060Z,99.90
2022-07-29T02:28:08.403Z,99.90
2022-07-29T02:30:41.902Z,99.90
2022-07-29T02:33:11.914Z,99.90
2022-07-29T02:35:41.549Z,99.90
2022-07-29T02:38:28.677Z,99.90
2022-07-29T02:40:58.788Z,99.90
2022-07-29T02:43:27.796Z,99.90
2022-07-29T02:45:58.597Z,99.90
2022-07-29T02:48:36.342Z,99.90
2022-07-29T02:51:15.144Z,99.90
2022-07-29T02:54:06.727Z,99.90
2022-07-29T02:56:37.189Z,99.90
2022-07-29T02:59:10.093Z,99.90
2022-07-29T03:01:42.513Z,99.90
2022-07-29T03:04:13.761Z,99.90
2022-07-29T03:06:44.134Z,99.90
2022-07-29T03:09:14.092Z,99.90
2022-07-29T03:11:49.652Z,99.90
2022-07-29T03:14:21.195Z,99.90
2022-07-29T03:16:52.437Z,99.90
2022-07-29T03:19:21.574Z,99.90
2022-07-29T03:21:49.693Z,99.90
2022-07-29T03:24:28.985Z,99.90
2022-07-29T03:26:57.952Z,99.90
2022-07-29T03:29:32.929Z,99.90
2022-07-29T03:32:04.394Z,99.90
2022-07-29T03:34:36.672Z,99.90
2022-07-29T03:37:04.492Z,99.90
2022-07-29T03:39:36.991Z,99.90
2022-07-29T03:42:06.633Z,99.90
2022-07-29T03:44:36.584Z,99.90
2022-07-29T03:47:08.428Z,99.90
2022-07-29T03:49:39.722Z,99.90
2022-07-29T03:52:07.936Z,99.90
2022-07-29T03:54:36.160Z,99.90
2022-07-29T03:57:05.346Z,99.90
2022-07-29T03:59:34.697Z,99.90
2022-07-29T04:02:06.405Z,99.90
2022-07-29T04:04:35.722Z,99.90
2022-07-29T04:07:03.561Z,99.90
2022-07-29T04:09:31.385Z,99.90
2022-07-29T04:12:02.689Z,99.90
2022-07-29T04:14:31.979Z,99.90
2022-07-29T04:16:59.890Z,99.90
2022-07-29T04:19:29.058Z,99.90
2022-07-29T04:21:57.081Z,99.90
2022-07-29T04:24:24.874Z,99.90
2022-07-29T04:26:52.813Z,99.90
2022-07-29T04:29:20.824Z,99.90
2022-07-29T04:31:48.854Z,99.90
2022-07-29T04:34:17.189Z,99.90
2022-07-29T04:36:46.630Z,99.90
2022-07-29T04:39:18.080Z,99.90
2022-07-29T04:41:48.608Z,99.90
2022-07-29T04:44:16.895Z,99.90
2022-07-29T04:46:45.535Z,99.90
2022-07-29T04:49:14.078Z,99.90
2022-07-29T04:51:42.035Z,99.90
2022-07-29T04:54:11.250Z,99.90
2022-07-29T04:56:39.145Z,99.90
2022-07-29T04:59:06.933Z,99.90
2022-07-29T05:01:34.797Z,99.90
2022-07-29T05:04:02.744Z,99.90
2022-07-29T05:06:31.446Z,99.90
2022-07-29T05:08:59.313Z,99.90
2022-07-29T05:11:30.575Z,99.90
2022-07-29T05:13:58.576Z,99.90
2022-07-29T05:16:26.405Z,99.90
2022-07-29T05:18:54.264Z,99.90
2022-07-29T05:21:22.130Z,99.90
2022-07-29T05:23:49.941Z,99.90
2022-07-29T05:26:17.835Z,99.90
2022-07-29T05:28:47.025Z,99.90
2022-07-29T05:31:15.711Z,99.90
2022-07-29T05:33:43.960Z,99.90
2022-07-29T05:36:12.512Z,99.90
2022-07-29T05:38:40.355Z,99.90
2022-07-29T05:41:08.357Z,99.90
2022-07-29T05:43:36.148Z,99.90
2022-07-29T05:46:05.565Z,99.90
2022-07-29T05:48:33.440Z,99.90
2022-07-29T05:51:01.273Z,99.90
2022-07-29T05:53:29.282Z,99.90
2022-07-29T05:55:57.474Z,99.90
2022-07-29T05:58:25.287Z,99.90
2022-07-29T06:00:53.740Z,99.80
2022-07-29T06:03:22.933Z,99.90
2022-07-29T06:05:50.769Z,99.80
2022-07-29T06:08:18.637Z,99.70
2022-07-29T06:10:47.142Z,99.70
2022-07-29T06:13:16.759Z,99.90
2022-07-29T06:15:44.946Z,99.90
2022-07-29T06:18:14.333Z,99.90
2022-07-29T06:20:43.651Z,98.80
2022-07-29T06:23:11.473Z,98.70
2022-07-29T06:25:40.336Z,99.00
2022-07-29T06:28:08.183Z,98.60
2022-07-29T06:30:36.146Z,98.10
2022-07-29T06:33:06.846Z,97.50
2022-07-29T06:35:41.240Z,96.70
2022-07-29T06:38:30.060Z,96.40
2022-07-29T06:41:03.893Z,95.00
2022-07-29T06:43:34.814Z,96.40
2022-07-29T06:46:04.874Z,95.20
2022-07-29T06:48:33.058Z,94.80
2022-07-29T06:51:01.466Z,94.00
2022-07-29T06:53:31.785Z,94.30
2022-07-29T06:56:00.828Z,93.50
2022-07-29T06:58:29.430Z,93.40
2022-07-29T07:01:06.877Z,92.50
2022-07-29T07:03:34.931Z,92.70
2022-07-29T07:06:02.799Z,92.80
2022-07-29T07:08:32.245Z,92.70
2022-07-29T07:11:00.110Z,91.90
2022-07-29T07:13:29.049Z,92.20
2022-07-29T07:15:56.833Z,91.40
2022-07-29T07:18:24.768Z,92.30
2022-07-29T07:20:52.582Z,91.20
2022-07-29T07:23:20.399Z,91.30
2022-07-29T07:25:49.584Z,91.80
2022-07-29T07:28:17.423Z,90.10
2022-07-29T07:30:46.517Z,90.40
2022-07-29T07:33:15.269Z,90.80
2022-07-29T07:35:43.551Z,91.90
2022-07-29T07:38:11.419Z,94.00
2022-07-29T07:40:39.334Z,94.90
2022-07-29T07:43:08.576Z,94.80
2022-07-29T07:45:38.143Z,95.10
2022-07-29T07:48:06.912Z,95.10
2022-07-29T07:50:35.142Z,95.10
2022-07-29T07:53:03.205Z,95.20
2022-07-29T07:55:53.253Z,95.40
2022-07-29T07:58:20.597Z,95.40
2022-07-29T08:00:49.496Z,96.50
2022-07-29T08:03:17.499Z,97.20
2022-07-29T08:05:45.590Z,95.40
2022-07-29T08:08:13.422Z,95.50
2022-07-29T08:10:57.370Z,95.60
2022-07-29T08:13:29.728Z,95.50
2022-07-29T08:16:02.611Z,95.70
2022-07-29T08:18:33.244Z,96.00
2022-07-29T08:21:01.393Z,96.40
2022-07-29T08:23:46.427Z,96.80
2022-07-29T08:26:17.148Z,95.60
2022-07-29T08:28:50.317Z,95.90
2022-07-29T08:31:18.955Z,96.10
2022-07-29T08:33:46.955Z,95.60
2022-07-29T08:36:15.221Z,96.00
2022-07-29T08:38:43.009Z,96.20
2022-07-29T08:41:11.163Z,96.00
2022-07-29T08:43:39.092Z,96.00
2022-07-29T08:46:08.286Z,96.30
2022-07-29T08:48:36.301Z,96.20
2022-07-29T08:51:04.769Z,96.10
2022-07-29T08:53:34.200Z,96.00
2022-07-29T08:56:02.827Z,94.70
2022-07-29T08:58:38.218Z,95.50
2022-07-29T09:01:12.462Z,95.90
2022-07-29T09:03:42.061Z,96.50
2022-07-29T09:06:10.498Z,95.90
2022-07-29T09:08:38.401Z,95.50
2022-07-29T09:11:07.834Z,95.90
2022-07-29T09:13:37.150Z,95.60
2022-07-29T09:16:09.301Z,95.70
2022-07-29T09:18:40.147Z,95.90
2022-07-29T09:21:27.509Z,96.10
2022-07-29T09:24:09.201Z,95.40
2022-07-29T09:26:38.910Z,95.10
2022-07-29T09:29:11.895Z,94.80
2022-07-29T09:31:42.548Z,94.90
2022-07-29T09:34:12.850Z,94.60
2022-07-29T09:36:45.435Z,95.10
2022-07-29T09:39:15.201Z,95.30
2022-07-29T09:41:51.328Z,95.00
2022-07-29T09:44:19.354Z,95.00
2022-07-29T09:47:07.701Z,94.50
2022-07-29T09:49:51.461Z,94.70
2022-07-29T09:52:19.330Z,94.90
2022-07-29T09:54:47.328Z,96.00
2022-07-29T09:57:30.521Z,95.40
2022-07-29T10:00:01.419Z,95.20
2022-07-29T10:02:34.185Z,95.50
2022-07-29T10:05:05.264Z,95.60
2022-07-29T10:07:49.405Z,94.00
2022-07-29T10:10:25.565Z,94.50
2022-07-29T10:12:56.186Z,94.90
2022-07-29T10:15:25.496Z,95.10
2022-07-29T10:17:53.811Z,94.80
2022-07-29T10:20:23.789Z,95.10
2022-07-29T10:22:53.997Z,94.90
2022-07-29T10:25:23.038Z,96.30
2022-07-29T10:27:53.037Z,94.60
2022-07-29T10:30:22.494Z,95.10
2022-07-29T10:33:12.510Z,94.60
2022-07-29T10:35:53.528Z,94.90
2022-07-29T10:38:47.217Z,94.70
2022-07-29T10:41:43.699Z,94.60
2022-07-29T10:44:19.504Z,95.00
2022-07-29T10:46:52.568Z,94.40
2022-07-29T10:49:24.723Z,94.20
2022-07-29T10:51:59.792Z,95.20
2022-07-29T10:54:48.827Z,94.50
2022-07-29T10:57:25.947Z,94.20
2022-07-29T11:00:31.297Z,94.00
2022-07-29T11:02:59.487Z,94.10
2022-07-29T11:05:32.237Z,94.60
2022-07-29T11:08:27.776Z,94.10
2022-07-29T11:11:43.928Z,94.00
2022-07-29T11:14:18.367Z,93.20
2022-07-29T11:17:06.254Z,93.90
2022-07-29T11:19:35.840Z,93.30
2022-07-29T11:22:04.617Z,93.20
2022-07-29T11:24:35.727Z,92.50
2022-07-29T11:27:19.646Z,94.00
2022-07-29T11:30:01.071Z,93.70
2022-07-29T11:32:38.956Z,93.20
2022-07-29T11:35:17.800Z,93.30
2022-07-29T11:37:55.300Z,93.30
2022-07-29T11:40:26.862Z,93.70
2022-07-29T11:42:55.164Z,93.00
2022-07-29T11:45:43.363Z,92.40
2022-07-29T11:48:28.888Z,91.90
2022-07-29T11:50:59.108Z,91.80
2022-07-29T11:53:29.191Z,92.00
2022-07-29T11:56:23.025Z,89.80
2022-07-29T11:59:02.978Z,91.70
2022-07-29T12:01:31.122Z,90.50
2022-07-29T12:04:08.129Z,91.90
2022-07-29T12:06:36.225Z,88.70
2022-07-29T12:09:11.311Z,91.90
2022-07-29T12:11:45.086Z,91.50
2022-07-29T12:14:27.990Z,91.80
2022-07-29T12:16:56.335Z,92.00
2022-07-29T12:19:24.228Z,91.60
2022-07-29T12:21:56.401Z,91.40
2022-07-29T12:24:26.789Z,92.70
2022-07-29T12:26:57.972Z,91.30
2022-07-29T12:29:35.637Z,91.70
2022-07-29T12:32:05.143Z,91.30
2022-07-29T12:34:33.989Z,91.80
2022-07-29T12:37:02.851Z,92.10
2022-07-29T12:39:32.330Z,91.10
2022-07-29T12:42:04.434Z,92.00
2022-07-29T12:44:46.398Z,91.70
2022-07-29T12:47:14.301Z,91.80
2022-07-29T12:49:42.256Z,92.10
2022-07-29T12:52:26.626Z,91.70
2022-07-29T12:54:54.396Z,92.00
2022-07-29T12:57:24.797Z,92.00
2022-07-29T13:00:16.965Z,92.30
2022-07-29T13:02:46.171Z,92.50
2022-07-29T13:05:14.506Z,92.60
2022-07-29T13:07:55.005Z,91.80
2022-07-29T13:10:25.093Z,92.90
2022-07-29T13:13:10.244Z,93.20
2022-07-29T13:15:38.869Z,93.00
2022-07-29T13:18:27.736Z,92.50
2022-07-29T13:20:55.825Z,92.80
2022-07-29T13:23:23.924Z,93.40
2022-07-29T13:25:51.939Z,92.90
2022-07-29T13:28:22.401Z,92.50
2022-07-29T13:30:50.266Z,93.10
2022-07-29T13:33:18.168Z,93.30
2022-07-29T13:35:45.978Z,93.40
2022-07-29T13:38:13.792Z,93.80
2022-07-29T13:40:42.521Z,93.80
2022-07-29T13:43:11.294Z,93.50
2022-07-29T13:45:40.531Z,93.40
2022-07-29T13:48:08.933Z,93.00
2022-07-29T13:50:36.794Z,93.50
2022-07-29T13:53:04.916Z,93.30
2022-07-29T13:55:32.745Z,93.20
2022-07-29T13:58:01.444Z,94.00
2022-07-29T14:00:32.118Z,93.60
2022-07-29T14:03:01.334Z,93.50
2022-07-29T14:05:29.281Z,93.40
2022-07-29T14:07:57.070Z,93.50
2022-07-29T14:10:24.928Z,93.40
2022-07-29T14:12:52.770Z,93.50
2022-07-29T14:15:21.222Z,93.50
2022-07-29T14:17:49.053Z,93.60
2022-07-29T14:20:18.798Z,93.70
2022-07-29T14:22:46.569Z,93.70
2022-07-29T14:25:15.669Z,93.80
2022-07-29T14:27:44.415Z,92.90
2022-07-29T14:30:13.049Z,93.70
2022-07-29T14:32:40.905Z,93.70
2022-07-29T14:35:09.819Z,93.70
2022-07-29T14:37:40.095Z,93.80
2022-07-29T14:40:09.960Z,93.40
2022-07-29T14:42:38.387Z,94.00
2022-07-29T14:45:07.691Z,94.00
2022-07-29T14:47:36.005Z,94.30
2022-07-29T14:50:05.057Z,93.70
2022-07-29T14:52:32.961Z,94.30
2022-07-29T14:55:02.138Z,93.70
2022-07-29T14:57:30.081Z,94.40
2022-07-29T14:59:58.062Z,94.80
2022-07-29T15:02:45.687Z,94.60
2022-07-29T15:05:13.982Z,94.60
2022-07-29T15:07:42.122Z,94.60
2022-07-29T15:10:11.414Z,94.50
2022-07-29T15:12:42.657Z,94.50
2022-07-29T15:15:10.924Z,94.70
2022-07-29T15:17:38.777Z,94.60
2022-07-29T15:20:07.798Z,94.80
2022-07-29T15:22:35.685Z,95.30
2022-07-29T15:25:03.566Z,95.20
2022-07-29T15:27:32.924Z,95.30
2022-07-29T15:30:00.987Z,95.10
2022-07-29T15:32:28.902Z,95.10
2022-07-29T15:34:56.761Z,95.30
2022-07-29T15:37:24.672Z,95.30
2022-07-29T15:39:55.050Z,95.20
2022-07-29T15:42:26.153Z,95.60
2022-07-29T15:44:56.774Z,95.50
2022-07-29T15:47:23.672Z,96.40
2022-07-29T15:49:51.551Z,96.10
2022-07-29T15:52:24.787Z,96.50
2022-07-29T15:54:54.870Z,96.70
2022-07-29T15:57:22.890Z,97.00
2022-07-29T15:59:50.957Z,96.90
2022-07-29T16:02:20.223Z,96.40
2022-07-29T16:04:48.140Z,96.30
2022-07-29T16:07:16.111Z,96.30
2022-07-29T16:09:49.488Z,96.40
2022-07-29T16:12:20.837Z,96.60
2022-07-29T16:14:49.383Z,96.50
2022-07-29T16:17:17.457Z,96.30
2022-07-29T16:19:46.848Z,96.50
2022-07-29T16:22:15.180Z,96.50
2022-07-29T16:24:43.103Z,96.40
2022-07-29T16:27:10.929Z,96.50
2022-07-29T16:29:38.754Z,96.50
2022-07-29T16:32:07.449Z,96.50
2022-07-29T16:34:35.522Z,96.50
2022-07-29T16:37:05.342Z,96.40
2022-07-29T16:39:33.597Z,96.50
2022-07-29T16:42:03.173Z,96.60
2022-07-29T16:44:33.336Z,96.60
2022-07-29T16:47:02.688Z,96.70
2022-07-29T16:49:31.838Z,96.70
2022-07-29T16:51:59.667Z,96.80
2022-07-29T16:54:29.919Z,97.10
2022-07-29T16:57:00.388Z,97.40
2022-07-29T16:59:28.960Z,97.40
2022-07-29T17:01:57.729Z,97.40
2022-07-29T17:04:26.040Z,97.60
2022-07-29T17:06:53.896Z,97.70
2022-07-29T17:09:21.932Z,97.80
2022-07-29T17:11:55.177Z,97.70
2022-07-29T17:14:25.460Z,97.80
2022-07-29T17:17:01.099Z,97.80
2022-07-29T17:19:30.227Z,97.70
2022-07-29T17:22:06.462Z,97.70
2022-07-29T17:24:38.376Z,97.70
2022-07-29T17:27:08.599Z,97.80
2022-07-29T17:29:36.634Z,97.50
2022-07-29T17:32:04.753Z,97.80
2022-07-29T17:34:36.048Z,98.00
2022-07-29T17:37:04.077Z,97.90
2022-07-29T17:39:32.681Z,98.30
2022-07-29T17:42:00.526Z,97.90
2022-07-29T17:44:29.855Z,98.40
2022-07-29T17:46:58.011Z,98.30
2022-07-29T17:49:26.790Z,98.30
2022-07-29T17:52:00.382Z,98.40
2022-07-29T17:54:28.782Z,98.90
2022-07-29T17:56:56.987Z,99.10
2022-07-29T17:59:25.192Z,99.30
2022-07-29T18:01:54.484Z,99.20
2022-07-29T18:04:23.334Z,99.50
2022-07-29T18:06:51.335Z,99.70
2022-07-29T18:09:19.783Z,99.60
2022-07-29T18:11:48.706Z,99.80
2022-07-29T18:14:16.871Z,99.90
2022-07-29T18:16:44.854Z,99.90
2022-07-29T18:19:14.166Z,99.90
2022-07-29T18:21:54.599Z,99.90
2022-07-29T18:24:25.803Z,99.90
2022-07-29T18:26:54.027Z,99.90
2022-07-29T18:29:22.240Z,99.90
2022-07-29T18:31:50.220Z,99.90
2022-07-29T18:34:19.541Z,99.90
2022-07-29T18:36:48.092Z,99.90
2022-07-29T18:39:20.579Z,99.90
2022-07-29T18:41:50.168Z,99.90
2022-07-29T18:44:18.847Z,99.90
2022-07-29T18:46:47.466Z,99.90
2022-07-29T18:49:16.078Z,99.90
2022-07-29T18:51:45.362Z,99.90
2022-07-29T18:54:13.295Z,99.90
2022-07-29T18:56:41.128Z,99.90
2022-07-29T18:59:09.075Z,99.90
2022-07-29T19:01:37.761Z,99.90
2022-07-29T19:04:06.008Z,99.90
2022-07-29T19:06:33.858Z,99.90
2022-07-29T19:09:03.044Z,99.90
2022-07-29T19:11:30.868Z,99.90
2022-07-29T19:13:58.685Z,99.90
2022-07-29T19:16:26.570Z,99.90
2022-07-29T19:18:54.640Z,99.90
2022-07-29T19:21:24.839Z,99.90
2022-07-29T19:24:06.351Z,99.90
2022-07-29T19:26:39.169Z,99.90
2022-07-29T19:29:06.959Z,99.90
2022-07-29T19:31:34.812Z,99.90
2022-07-29T19:34:02.609Z,99.90
2022-07-29T19:36:31.389Z,99.90
2022-07-29T19:38:59.962Z,99.90
2022-07-29T19:41:28.440Z,99.90
2022-07-29T19:43:58.017Z,99.90
2022-07-29T19:46:28.673Z,99.90
2022-07-29T19:48:57.263Z,99.90
2022-07-29T19:51:25.350Z,99.90
2022-07-29T19:53:53.323Z,99.90
2022-07-29T19:56:21.160Z,99.90
2022-07-29T19:58:48.960Z,99.90
2022-07-29T20:01:18.164Z,99.90
2022-07-29T20:03:46.553Z,99.90
2022-07-29T20:06:14.763Z,99.90
2022-07-29T20:08:42.597Z,99.90
2022-07-29T20:11:10.426Z,99.90
2022-07-29T20:13:38.344Z,99.90
2022-07-29T20:16:08.118Z,99.90
2022-07-29T20:18:37.470Z,99.90
2022-07-29T20:21:05.422Z,99.90
2022-07-29T20:23:33.692Z,99.90
2022-07-29T20:26:01.641Z,99.90
2022-07-29T20:28:29.499Z,99.90
2022-07-29T20:30:57.426Z,99.90
2022-07-29T20:33:25.369Z,99.90
2022-07-29T20:35:54.698Z,99.90
2022-07-29T20:38:22.492Z,99.90
2022-07-29T20:40:50.674Z,99.90
2022-07-29T20:43:18.453Z,99.90
2022-07-29T20:45:46.248Z,99.90
2022-07-29T20:48:14.344Z,99.90
2022-07-29T20:50:44.854Z,99.90
2022-07-29T20:53:14.036Z,99.90
2022-07-29T20:55:41.930Z,99.90
2022-07-29T20:58:09.820Z,99.90
2022-07-29T21:00:37.874Z,99.90
2022-07-29T21:03:05.750Z,99.90
2022-07-29T21:05:33.730Z,99.90
2022-07-29T21:08:01.548Z,99.90
2022-07-29T21:10:30.764Z,99.90
2022-07-29T21:12:58.530Z,99.90
2022-07-29T21:15:27.573Z,99.90
2022-07-29T21:18:00.493Z,99.90
2022-07-29T21:20:28.753Z,99.90
2022-07-29T21:22:56.752Z,99.90
2022-07-29T21:25:25.304Z,99.90
2022-07-29T21:28:11.750Z,99.90
2022-07-29T21:30:39.569Z,99.90
2022-07-29T21:33:07.441Z,99.90
2022-07-29T21:36:06.895Z,99.90
2022-07-29T21:38:23.339Z,99.90
2022-07-29T21:40:52.906Z,99.90
2022-07-29T21:43:22.939Z,99.90
2022-07-29T21:45:51.346Z,99.90
2022-07-29T21:48:22.277Z,99.90
2022-07-29T21:50:50.852Z,99.90
2022-07-29T21:53:22.093Z,99.90
2022-07-29T21:55:51.645Z,99.90
2022-07-29T21:58:23.639Z,99.90
2022-07-29T22:00:51.623Z,99.90
2022-07-29T22:03:19.509Z,99.90
2022-07-29T22:05:47.357Z,99.90
2022-07-29T22:08:15.122Z,99.90
2022-07-29T22:10:43.037Z,99.90
2022-07-29T22:13:11.175Z,99.90
2022-07-29T22:15:44.088Z,99.90
2022-07-29T22:18:20.588Z,99.90
2022-07-29T22:20:48.993Z,99.90
2022-07-29T22:23:16.870Z,99.90
2022-07-29T22:25:44.835Z,99.90
2022-07-29T22:28:12.632Z,99.90
2022-07-29T22:30:41.826Z,99.90
2022-07-29T22:33:09.682Z,99.90
2022-07-29T22:35:45.305Z,99.90
2022-07-29T22:38:17.003Z,99.90
2022-07-29T22:40:44.827Z,99.90
2022-07-29T22:43:13.210Z,99.90
2022-07-29T22:45:42.577Z,99.90
2022-07-29T22:48:11.148Z,99.90
2022-07-29T22:50:39.495Z,99.90
2022-07-29T22:53:07.347Z,99.90
2022-07-29T22:55:35.265Z,99.90
2022-07-29T23:00:56.020Z,99.90
2022-07-29T23:03:23.948Z,99.90
2022-07-29T23:05:52.303Z,99.90
2022-07-29T23:08:20.574Z,99.90
2022-07-29T23:10:48.646Z,99.90
2022-07-29T23:13:16.509Z,99.90
2022-07-29T23:15:44.480Z,99.90
2022-07-29T23:20:55.502Z,99.90
2022-07-29T23:23:23.386Z,99.90
2022-07-29T23:25:51.269Z,99.90
2022-07-29T23:28:20.145Z,99.90
2022-07-29T23:30:48.014Z,99.90
2022-07-29T23:33:17.185Z,99.90
2022-07-29T23:35:45.089Z,99.90
2022-07-29T23:38:12.948Z,99.90
2022-07-29T23:40:40.713Z,99.90
2022-07-29T23:43:09.052Z,99.90
2022-07-29T23:45:44.924Z,99.90
2022-07-29T23:48:17.769Z,99.90
2022-07-29T23:50:45.869Z,99.90
2022-07-29T23:53:13.723Z,99.90
2022-07-29T23:55:41.525Z,99.90
2022-07-29T23:58:09.330Z,99.90
